Time;durP1;ratioP1;P1;durP2;ratioP2;P2;SDS_P1;SDS_P2;PMS_P1;PMS_P2;Temp;Humidity;BMP_temperature;BMP_pressure;BME280_temperature;BME280_humidity;BME280_pressure;Samples;Min_cycle;Max_cycle;Signal;HPM_P1;HPM_P2
2023/06/16 00:00:32;;;;;;;0.63;0.50;;;25.00;52.80;;;;;;6142591;28;20031;-62
2023/06/16 00:03:34;;;;;;;0.70;0.50;;;25.30;53.10;;;;;;6144327;28;20051;-63
2023/06/16 00:06:42;;;;;;;0.80;0.70;;;25.10;52.90;;;;;;6144090;28;20039;-63
2023/06/16 00:09:44;;;;;;;0.70;0.52;;;25.10;53.00;;;;;;6129227;28;20043;-63
2023/06/16 00:12:45;;;;;;;0.70;0.65;;;25.20;53.50;;;;;;6134770;28;20570;-64
2023/06/16 00:15:47;;;;;;;0.90;0.68;;;25.10;53.10;;;;;;6133372;28;20093;-63
2023/06/16 00:18:51;;;;;;;0.70;0.60;;;24.70;53.00;;;;;;6134623;28;20549;-63
2023/06/16 00:21:59;;;;;;;0.50;0.50;;;25.20;53.30;;;;;;6133423;28;20925;-62
2023/06/16 00:25:01;;;;;;;0.55;0.47;;;25.10;53.10;;;;;;6135869;28;20619;-62
2023/06/16 00:28:03;;;;;;;0.77;0.57;;;25.00;53.30;;;;;;6132175;28;20047;-62
2023/06/16 00:31:04;;;;;;;0.63;0.60;;;25.10;53.30;;;;;;6133061;29;20651;-62
2023/06/16 00:34:09;;;;;;;1.42;0.70;;;25.00;53.80;;;;;;6136546;28;20070;-62
2023/06/16 00:37:11;;;;;;;0.80;0.68;;;24.90;50.50;;;;;;6131603;29;20040;-63
2023/06/16 00:40:13;;;;;;;0.70;0.40;;;25.20;53.50;;;;;;6131999;28;20046;-63
2023/06/16 00:43:14;;;;;;;0.65;0.63;;;24.70;53.20;;;;;;6133816;28;20035;-62
2023/06/16 00:46:25;;;;;;;0.63;0.60;;;25.30;53.60;;;;;;6133676;28;20047;-62
2023/06/16 00:49:27;;;;;;;0.90;0.70;;;25.10;53.40;;;;;;6131194;29;20115;-61
2023/06/16 00:52:34;;;;;;;0.73;0.50;;;25.00;53.60;;;;;;6132911;28;20078;-62
2023/06/16 00:55:36;;;;;;;0.73;0.65;;;25.10;53.50;;;;;;6132632;28;20043;-61
2023/06/16 00:58:39;;;;;;;0.50;0.50;;;24.70;53.70;;;;;;6132406;28;20047;-61
2023/06/16 01:01:40;;;;;;;0.70;0.60;;;25.10;53.60;;;;;;6131268;28;20043;-62
2023/06/16 01:04:42;;;;;;;0.50;0.47;;;25.10;53.80;;;;;;6134946;28;20507;-62
2023/06/16 01:07:52;;;;;;;0.70;0.68;;;25.10;53.70;;;;;;6134478;28;20534;-62
2023/06/16 01:11:03;;;;;;;0.40;0.40;;;25.10;53.70;;;;;;6133111;29;20085;-62
2023/06/16 01:14:14;;;;;;;0.52;0.50;;;25.10;53.70;;;;;;6143727;28;20059;-62
2023/06/16 01:17:16;;;;;;;0.60;0.60;;;24.90;53.60;;;;;;6142930;28;20039;-62
2023/06/16 01:20:27;;;;;;;0.57;0.50;;;25.00;53.70;;;;;;6146242;28;20119;-62
2023/06/16 01:23:52;;;;;;;0.60;0.50;;;25.20;53.90;;;;;;6141000;28;20039;-62
2023/06/16 01:26:57;;;;;;;0.63;0.60;;;25.10;53.70;;;;;;6144574;28;20051;-62
2023/06/16 01:30:00;;;;;;;1.08;0.75;;;24.90;53.80;;;;;;6145174;28;20079;-62
2023/06/16 01:33:03;;;;;;;0.75;0.75;;;25.20;53.80;;;;;;6144403;28;20035;-62
2023/06/16 01:36:06;;;;;;;0.77;0.68;;;25.20;54.00;;;;;;6145223;29;20674;-62
2023/06/16 01:39:10;;;;;;;0.77;0.60;;;25.10;53.90;;;;;;6143123;28;20133;-62
2023/06/16 01:42:14;;;;;;;0.52;0.52;;;25.00;53.80;;;;;;6146726;28;20046;-63
2023/06/16 01:45:16;;;;;;;0.60;0.50;;;25.10;54.00;;;;;;6146614;28;20035;-62
2023/06/16 01:48:19;;;;;;;0.73;0.70;;;25.10;54.00;;;;;;6145823;28;20051;-62
2023/06/16 01:51:22;;;;;;;0.40;0.40;;;25.00;53.90;;;;;;6145952;28;20039;-62
2023/06/16 01:54:25;;;;;;;0.80;0.75;;;25.00;54.00;;;;;;6146813;28;20043;-63
2023/06/16 01:57:28;;;;;;;0.63;0.60;;;24.90;53.90;;;;;;6145034;28;20051;-62
2023/06/16 02:00:35;;;;;;;0.85;0.57;;;24.60;53.90;;;;;;6145728;28;20043;-62
2023/06/16 02:03:42;;;;;;;0.63;0.63;;;24.70;53.80;;;;;;6143144;29;20036;-63
2023/06/16 02:06:49;;;;;;;0.50;0.50;;;25.00;54.00;;;;;;6143784;28;20487;-63
2023/06/16 02:09:52;;;;;;;0.60;0.60;;;24.60;53.70;;;;;;6144821;29;20046;-63
2023/06/16 02:12:54;;;;;;;0.63;0.60;;;24.60;53.80;;;;;;6145735;28;20041;-63
2023/06/16 02:15:59;;;;;;;0.98;0.60;;;25.00;54.10;;;;;;6146296;28;20067;-63
2023/06/16 02:19:01;;;;;;;0.60;0.50;;;24.90;54.10;;;;;;6146467;28;20035;-62
2023/06/16 02:22:03;;;;;;;0.70;0.70;;;24.70;53.90;;;;;;6146569;28;20039;-62
2023/06/16 02:25:06;;;;;;;0.68;0.60;;;25.10;54.30;;;;;;6143938;28;20849;-63
2023/06/16 02:28:08;;;;;;;0.50;0.50;;;24.60;53.90;;;;;;6145247;28;20502;-62
2023/06/16 02:31:10;;;;;;;0.68;0.63;;;25.00;54.40;;;;;;6146041;28;20043;-63
2023/06/16 02:34:11;;;;;;;1.20;0.68;;;25.10;54.40;;;;;;6145935;28;20040;-63
2023/06/16 02:37:14;;;;;;;0.77;0.70;;;25.10;54.50;;;;;;6145824;28;20071;-63
2023/06/16 02:40:16;;;;;;;0.85;0.85;;;25.00;54.40;;;;;;6145843;28;20198;-63
2023/06/16 02:43:18;;;;;;;0.55;0.50;;;25.20;54.60;;;;;;6144931;28;20118;-63
2023/06/16 02:46:25;;;;;;;0.60;0.45;;;25.10;54.60;;;;;;6145585;28;20040;-63
2023/06/16 02:49:27;;;;;;;0.73;0.73;;;25.00;54.80;;;;;;6145855;28;20043;-63
2023/06/16 02:52:33;;;;;;;0.88;0.70;;;24.90;54.70;;;;;;6145706;28;20043;-63
2023/06/16 02:55:38;;;;;;;0.70;0.55;;;25.10;54.90;;;;;;6143047;28;20099;-63
2023/06/16 02:58:39;;;;;;;0.50;0.50;;;24.60;54.60;;;;;;6145772;28;20073;-63
2023/06/16 03:01:41;;;;;;;0.70;0.60;;;25.00;55.00;;;;;;6145119;28;20562;-63
2023/06/16 03:04:52;;;;;;;0.60;0.52;;;24.60;54.90;;;;;;6145489;28;20396;-63
2023/06/16 03:07:57;;;;;;;0.68;0.68;;;25.10;55.30;;;;;;6145247;28;20499;-63
2023/06/16 03:11:00;;;;;;;0.60;0.60;;;24.70;55.20;;;;;;6145177;28;20040;-63
2023/06/16 03:14:09;;;;;;;0.60;0.60;;;24.90;55.20;;;;;;6145348;28;20071;-63
2023/06/16 03:17:11;;;;;;;0.75;0.70;;;24.70;55.10;;;;;;6144511;28;20086;-63
2023/06/16 03:20:15;;;;;;;0.60;0.50;;;25.10;55.60;;;;;;6143025;28;20071;-63
2023/06/16 03:23:27;;;;;;;0.80;0.70;;;24.90;55.70;;;;;;6141419;28;20046;-63
2023/06/16 03:26:31;;;;;;;0.73;0.60;;;24.40;55.80;;;;;;6142788;28;20058;-63
2023/06/16 03:29:42;;;;;;;0.88;0.65;;;25.00;58.60;;;;;;6144337;28;20039;-62
2023/06/16 03:32:45;;;;;;;0.70;0.60;;;24.50;55.30;;;;;;6144191;28;20502;-63
2023/06/16 03:35:50;;;;;;;0.75;0.70;;;24.50;55.30;;;;;;6144358;28;20050;-63
2023/06/16 03:39:03;;;;;;;0.82;0.82;;;24.70;55.40;;;;;;6144229;28;20395;-62
2023/06/16 03:42:11;;;;;;;0.90;0.70;;;24.90;55.30;;;;;;6143649;28;20065;-63
2023/06/16 03:45:12;;;;;;;0.70;0.70;;;25.00;52.90;;;;;;6142762;29;20507;-63
2023/06/16 03:48:14;;;;;;;1.55;0.68;;;24.90;55.70;;;;;;6142594;28;20047;-63
2023/06/16 03:51:24;;;;;;;0.70;0.70;;;24.90;55.70;;;;;;6145623;28;20090;-63
2023/06/16 03:54:26;;;;;;;0.90;0.65;;;24.50;55.30;;;;;;6143895;29;20383;-62
2023/06/16 03:57:29;;;;;;;0.80;0.80;;;24.90;55.90;;;;;;6147202;28;20047;-62
2023/06/16 04:00:35;;;;;;;0.60;0.52;;;25.10;56.00;;;;;;6144579;29;20114;-62
2023/06/16 04:03:38;;;;;;;0.75;0.73;;;25.00;56.00;;;;;;6143757;28;20031;-62
2023/06/16 04:06:41;;;;;;;0.70;0.70;;;24.80;56.10;;;;;;6146444;28;20040;-62
2023/06/16 04:09:42;;;;;;;0.77;0.77;;;24.50;56.10;;;;;;6144291;29;20043;-62
2023/06/16 04:12:45;;;;;;;0.70;0.70;;;24.90;56.30;;;;;;6145244;28;20074;-62
2023/06/16 04:15:47;;;;;;;0.77;0.77;;;24.60;56.30;;;;;;6144086;29;20498;-62
2023/06/16 04:18:51;;;;;;;0.80;0.80;;;24.50;56.10;;;;;;6145264;28;20510;-62
2023/06/16 04:21:53;;;;;;;0.90;0.65;;;24.90;56.60;;;;;;6145552;28;20052;-62
2023/06/16 04:24:57;;;;;;;0.70;0.70;;;24.90;56.50;;;;;;6146663;28;20042;-62
2023/06/16 04:28:01;;;;;;;0.80;0.80;;;24.90;56.80;;;;;;6145210;28;20043;-63
2023/06/16 04:31:03;;;;;;;0.60;0.55;;;24.90;56.70;;;;;;6146642;28;20663;-62
2023/06/16 04:34:06;;;;;;;0.70;0.70;;;24.70;57.10;;;;;;6145040;28;20051;-62
2023/06/16 04:37:13;;;;;;;0.95;0.60;;;24.80;56.90;;;;;;6144477;28;20043;-62
2023/06/16 04:40:15;;;;;;;0.70;0.70;;;24.80;57.10;;;;;;6110967;29;20055;-62
2023/06/16 04:43:17;;;;;;;0.73;0.70;;;24.50;56.90;;;;;;6145199;28;20035;-62
2023/06/16 04:46:18;;;;;;;0.88;0.80;;;24.90;57.30;;;;;;6145070;28;20071;-62
2023/06/16 04:49:22;;;;;;;0.90;0.80;;;24.70;57.30;;;;;;6142500;28;20054;-62
2023/06/16 04:52:26;;;;;;;1.10;0.93;;;24.90;57.70;;;;;;6145160;28;20094;-62
2023/06/16 04:55:27;;;;;;;0.80;0.80;;;;;;;;;;6148962;28;20050;-62
2023/06/16 04:58:30;;;;;;;0.73;0.70;;;24.60;66.30;;;;;;6149059;28;20050;-62
2023/06/16 05:01:31;;;;;;;0.63;0.60;;;24.40;79.70;;;;;;6148452;28;20046;-62
2023/06/16 05:04:34;;;;;;;0.68;0.68;;;24.30;63.20;;;;;;6148186;28;20043;-62
2023/06/16 05:07:37;;;;;;;0.85;0.80;;;24.70;57.60;;;;;;6147679;28;20047;-62
2023/06/16 05:10:40;;;;;;;1.02;0.93;;;24.80;57.20;;;;;;6147726;28;20039;-63
2023/06/16 05:13:42;;;;;;;0.70;0.70;;;24.70;57.30;;;;;;6144537;28;20454;-63
2023/06/16 05:16:44;;;;;;;1.02;0.93;;;24.80;57.60;;;;;;6145470;28;20101;-63
2023/06/16 05:19:47;;;;;;;1.13;0.80;;;24.80;57.40;;;;;;6140326;28;20038;-62
2023/06/16 05:22:48;;;;;;;0.90;0.80;;;24.40;58.10;;;;;;6142898;28;20723;-63
2023/06/16 05:25:50;;;;;;;0.70;0.70;;;24.70;57.40;;;;;;6144033;28;20047;-63
2023/06/16 05:28:53;;;;;;;0.80;0.70;;;24.60;57.40;;;;;;6142671;29;20067;-63
2023/06/16 05:32:00;;;;;;;0.80;0.63;;;24.80;57.40;;;;;;6146377;28;20067;-63
2023/06/16 05:35:01;;;;;;;1.00;0.90;;;24.50;57.20;;;;;;6145335;28;20043;-63
2023/06/16 05:38:06;;;;;;;0.70;0.70;;;24.60;57.30;;;;;;6145327;28;20138;-64
2023/06/16 05:41:08;;;;;;;0.70;0.70;;;24.70;57.30;;;;;;6145538;28;20035;-63
2023/06/16 05:44:14;;;;;;;0.95;0.70;;;24.90;57.50;;;;;;6144876;29;20031;-64
2023/06/16 05:47:16;;;;;;;0.77;0.70;;;24.80;57.90;;;;;;6135363;28;20733;-63
2023/06/16 05:50:17;;;;;;;0.73;0.73;;;24.70;57.50;;;;;;6142580;28;20043;-64
2023/06/16 05:53:20;;;;;;;0.65;0.65;;;24.70;57.70;;;;;;6142696;28;20035;-64
2023/06/16 05:56:23;;;;;;;0.77;0.70;;;24.80;57.70;;;;;;6144098;28;20043;-64
2023/06/16 05:59:26;;;;;;;0.60;0.60;;;24.80;57.70;;;;;;6128116;28;20150;-63
2023/06/16 06:02:28;;;;;;;0.60;0.60;;;24.40;57.50;;;;;;6128184;29;20062;-64
2023/06/16 06:05:34;;;;;;;1.20;0.93;;;25.70;58.70;;;;;;6128036;28;20090;-63
2023/06/16 06:08:36;;;;;;;0.77;0.73;;;24.80;56.10;;;;;;6136651;28;20715;-63
2023/06/16 06:11:39;;;;;;;0.88;0.70;;;24.90;58.20;;;;;;6135615;28;20478;-63
2023/06/16 06:14:41;;;;;;;0.77;0.70;;;24.60;57.90;;;;;;6120309;28;20035;-63
2023/06/16 06:17:43;;;;;;;0.77;0.77;;;24.40;57.90;;;;;;6140573;28;20047;-63
2023/06/16 06:20:46;;;;;;;0.88;0.80;;;24.80;58.00;;;;;;6138783;28;20510;-63
2023/06/16 06:23:48;;;;;;;1.10;1.00;;;25.00;58.30;;;;;;6139786;28;20039;-63
2023/06/16 06:26:50;;;;;;;0.88;0.88;;;24.90;58.40;;;;;;6128086;28;20050;-63
2023/06/16 06:29:52;;;;;;;0.85;0.80;;;25.10;58.70;;;;;;6133082;28;20122;-63
2023/06/16 06:32:53;;;;;;;0.95;0.75;;;24.90;58.30;;;;;;6134419;28;20097;-60
2023/06/16 06:35:55;;;;;;;0.95;0.68;;;24.90;59.00;;;;;;6133539;29;20058;-60
2023/06/16 06:38:58;;;;;;;1.60;0.70;;;24.90;58.30;;;;;;6130947;28;20094;-64
2023/06/16 06:42:00;;;;;;;0.93;0.85;;;24.90;59.00;;;;;;6122824;29;20066;-64
2023/06/16 06:45:13;;;;;;;1.38;0.70;;;24.90;59.20;;;;;;6124731;28;20042;-65
2023/06/16 06:48:17;;;;;;;1.05;0.85;;;24.90;59.00;;;;;;6134785;28;20094;-60
2023/06/16 06:51:20;;;;;;;0.68;0.57;;;25.00;59.90;;;;;;6145823;28;20143;-62
2023/06/16 06:54:22;;;;;;;1.02;0.70;;;24.90;59.40;;;;;;6144198;28;20050;-62
2023/06/16 06:57:24;;;;;;;0.80;0.80;;;24.90;59.40;;;;;;6116668;28;20046;-61
2023/06/16 07:00:26;;;;;;;1.33;0.90;;;24.40;81.10;;;;;;6131730;28;20050;-63
2023/06/16 07:03:27;;;;;;;1.65;1.05;;;24.90;61.00;;;;;;6115204;28;20051;-62
2023/06/16 07:06:29;;;;;;;1.25;0.95;;;25.10;60.80;;;;;;6115217;28;20042;-61
2023/06/16 07:09:30;;;;;;;1.20;0.95;;;25.00;73.40;;;;;;6121149;28;20109;-61
2023/06/16 07:12:35;;;;;;;1.48;1.10;;;24.50;60.00;;;;;;6122061;28;20031;-61
2023/06/16 07:15:37;;;;;;;1.05;0.90;;;25.10;58.80;;;;;;6122407;28;20053;-62
2023/06/16 07:18:39;;;;;;;1.10;0.85;;;25.10;59.00;;;;;;6113806;28;20043;-60
2023/06/16 07:21:40;;;;;;;1.00;0.88;;;25.20;59.30;;;;;;6121422;28;20486;-60
2023/06/16 07:24:42;;;;;;;2.35;1.00;;;25.10;57.40;;;;;;6118823;28;20118;-60
2023/06/16 07:27:43;;;;;;;1.60;1.20;;;25.10;57.60;;;;;;6121339;28;20046;-61
